createdAt,value
2018-01-29T00:01:35.320Z,94.40
2018-01-29T00:04:09.118Z,94.50
2018-01-29T00:06:42.793Z,94.60
2018-01-29T00:09:16.628Z,94.60
2018-01-29T00:11:50.417Z,94.60
2018-01-29T00:14:24.213Z,94.60
2018-01-29T00:16:57.940Z,94.70
2018-01-29T00:19:31.681Z,94.60
2018-01-29T00:22:05.488Z,94.50
2018-01-29T00:24:39.285Z,94.20
2018-01-29T00:27:13.011Z,94.10
2018-01-29T00:29:47.637Z,94.30
2018-01-29T00:32:21.605Z,94.30
2018-01-29T00:34:55.393Z,94.30
2018-01-29T00:37:29.047Z,94.20
2018-01-29T00:40:02.808Z,94.30
2018-01-29T00:42:36.571Z,94.40
2018-01-29T00:45:10.543Z,94.40
2018-01-29T00:47:45.960Z,94.60
2018-01-29T00:50:20.603Z,94.70
2018-01-29T00:52:54.342Z,94.40
2018-01-29T00:55:28.164Z,94.70
2018-01-29T00:58:01.937Z,94.40
2018-01-29T01:00:35.733Z,94.20
2018-01-29T01:03:09.379Z,93.90
2018-01-29T01:05:43.202Z,93.80
2018-01-29T01:08:17.700Z,93.60
2018-01-29T01:10:51.358Z,93.50
2018-01-29T01:13:25.014Z,92.90
2018-01-29T01:15:59.435Z,92.40
2018-01-29T01:18:33.173Z,92.40
2018-01-29T01:21:07.594Z,91.70
2018-01-29T01:23:41.260Z,91.70
2018-01-29T01:26:15.716Z,91.70
2018-01-29T01:28:50.336Z,91.30
2018-01-29T01:31:24.864Z,91.30
2018-01-29T01:33:59.388Z,91.30
2018-01-29T01:36:33.173Z,91.30
2018-01-29T01:39:06.900Z,91.30
2018-01-29T01:41:40.572Z,91.30
2018-01-29T01:44:14.464Z,91.10
2018-01-29T01:46:48.210Z,91.30
2018-01-29T01:49:30.874Z,91.30
2018-01-29T01:52:05.036Z,91.30
2018-01-29T01:54:38.882Z,91.30
2018-01-29T01:57:12.747Z,91.70
2018-01-29T01:59:46.494Z,91.30
2018-01-29T02:02:20.175Z,91.40
2018-01-29T02:04:54.048Z,92.30
2018-01-29T02:07:27.780Z,92.40
2018-01-29T02:10:01.525Z,92.40
2018-01-29T02:12:35.495Z,92.50
2018-01-29T02:15:09.172Z,92.60
2018-01-29T02:17:42.940Z,92.80
2018-01-29T02:20:17.500Z,92.70
2018-01-29T02:22:52.224Z,92.70
2018-01-29T02:25:25.828Z,92.80
2018-01-29T02:28:00.424Z,92.80
2018-01-29T02:30:34.101Z,92.80
2018-01-29T02:33:08.576Z,92.50
2018-01-29T02:35:42.355Z,92.60
2018-01-29T02:38:16.172Z,92.20
2018-01-29T02:40:49.976Z,92.10
2018-01-29T02:43:23.679Z,92.50
2018-01-29T02:45:57.469Z,91.70
2018-01-29T02:48:31.189Z,91.70
2018-01-29T02:51:04.871Z,91.70
2018-01-29T02:53:38.491Z,91.20
2018-01-29T02:56:12.276Z,90.40
2018-01-29T02:58:46.930Z,90.50
2018-01-29T03:01:20.762Z,90.30
2018-01-29T03:03:54.497Z,90.20
2018-01-29T03:06:28.307Z,90.30
2018-01-29T03:09:02.455Z,90.20
2018-01-29T03:11:36.100Z,90.60
2018-01-29T03:14:09.700Z,90.80
2018-01-29T03:16:43.463Z,90.90
2018-01-29T03:19:17.234Z,90.90
2018-01-29T03:21:51.619Z,90.70
2018-01-29T03:24:25.260Z,90.80
2018-01-29T03:26:59.035Z,90.80
2018-01-29T03:29:32.839Z,90.70
2018-01-29T03:32:06.504Z,91.20
2018-01-29T03:34:40.310Z,90.90
2018-01-29T03:37:14.013Z,91.30
2018-01-29T03:39:47.792Z,91.00
2018-01-29T03:42:22.182Z,90.80
2018-01-29T03:44:56.542Z,90.80
2018-01-29T03:47:30.232Z,90.60
2018-01-29T03:50:04.667Z,90.40
2018-01-29T03:52:38.564Z,90.20
2018-01-29T03:55:12.369Z,90.30
2018-01-29T03:57:46.215Z,90.20
2018-01-29T04:00:19.870Z,89.60
2018-01-29T04:02:53.647Z,88.60
2018-01-29T04:05:27.258Z,89.10
2018-01-29T04:08:01.131Z,86.40
2018-01-29T04:10:34.904Z,87.00
2018-01-29T04:13:08.701Z,86.40
2018-01-29T04:15:42.481Z,85.60
2018-01-29T04:18:16.192Z,86.70
2018-01-29T04:20:50.034Z,87.30
2018-01-29T04:23:24.608Z,87.10
2018-01-29T04:25:58.412Z,86.40
2018-01-29T04:28:32.151Z,84.70
2018-01-29T04:31:06.697Z,85.60
2018-01-29T04:33:40.473Z,86.30
2018-01-29T04:36:15.021Z,84.90
2018-01-29T04:38:48.831Z,84.90
2018-01-29T04:41:22.586Z,84.40
2018-01-29T04:43:57.151Z,83.00
2018-01-29T04:46:30.960Z,83.00
2018-01-29T04:49:05.664Z,83.00
2018-01-29T04:51:39.396Z,83.10
2018-01-29T04:54:13.180Z,80.00
2018-01-29T04:56:47.813Z,80.20
2018-01-29T04:59:21.598Z,80.90
2018-01-29T05:01:55.446Z,78.40
2018-01-29T05:04:29.905Z,78.50
2018-01-29T05:07:03.708Z,79.10
2018-01-29T05:09:37.395Z,77.80
2018-01-29T05:12:11.078Z,77.90
2018-01-29T05:14:45.536Z,75.00
2018-01-29T05:17:19.401Z,75.10
2018-01-29T05:19:53.076Z,75.60
2018-01-29T05:22:27.499Z,76.10
2018-01-29T05:25:02.096Z,77.20
2018-01-29T05:27:35.834Z,77.10
2018-01-29T05:30:10.364Z,76.40
2018-01-29T05:32:44.070Z,76.40
2018-01-29T05:35:20.319Z,76.10
2018-01-29T05:37:56.640Z,76.10
2018-01-29T05:40:30.293Z,75.30
2018-01-29T05:43:04.068Z,74.20
2018-01-29T05:45:37.933Z,74.50
2018-01-29T05:48:11.693Z,76.10
2018-01-29T05:50:45.367Z,76.10
2018-01-29T05:53:19.349Z,77.10
2018-01-29T05:55:53.025Z,77.70
2018-01-29T05:58:26.859Z,77.10
2018-01-29T06:01:01.344Z,77.40
2018-01-29T06:03:35.145Z,77.20
2018-01-29T06:06:08.912Z,75.50
2018-01-29T06:08:44.466Z,73.10
2018-01-29T06:11:18.612Z,72.90
2018-01-29T06:13:52.256Z,71.60
2018-01-29T06:16:26.085Z,71.90
2018-01-29T06:18:59.946Z,71.40
2018-01-29T06:21:47.380Z,68.00
2018-01-29T06:24:21.162Z,68.10
2018-01-29T06:26:54.859Z,69.20
2018-01-29T06:29:28.596Z,68.80
2018-01-29T06:32:02.382Z,68.60
2018-01-29T06:34:36.906Z,67.60
2018-01-29T06:37:10.712Z,67.60
2018-01-29T06:39:46.570Z,67.90
2018-01-29T06:44:59.919Z,67.60
2018-01-29T06:47:34.194Z,64.90
2018-01-29T06:50:08.137Z,65.30
2018-01-29T06:52:42.016Z,64.20
2018-01-29T06:55:15.804Z,65.20
2018-01-29T06:57:49.508Z,63.20
2018-01-29T07:00:23.345Z,63.50
2018-01-29T07:02:57.086Z,63.90
2018-01-29T07:05:30.772Z,64.00
2018-01-29T07:08:04.595Z,62.20
2018-01-29T07:10:38.371Z,62.20
2018-01-29T07:13:12.131Z,63.00
2018-01-29T07:15:46.706Z,62.20
2018-01-29T07:18:20.366Z,61.30
2018-01-29T07:20:54.146Z,61.00
2018-01-29T07:23:27.997Z,60.00
2018-01-29T07:26:01.680Z,59.70
2018-01-29T07:28:35.315Z,59.30
2018-01-29T07:31:08.986Z,60.00
2018-01-29T07:33:42.958Z,60.00
2018-01-29T07:36:17.498Z,56.80
2018-01-29T07:38:52.073Z,56.50
2018-01-29T07:41:25.873Z,56.50
2018-01-29T07:43:59.719Z,56.60
2018-01-29T07:46:33.548Z,57.80
2018-01-29T07:49:08.311Z,58.70
2018-01-29T07:51:42.951Z,58.90
2018-01-29T07:54:16.704Z,58.90
2018-01-29T07:56:50.409Z,59.60
2018-01-29T07:59:24.158Z,60.30
2018-01-29T08:01:57.903Z,61.20
2018-01-29T08:04:31.540Z,61.20
2018-01-29T08:07:06.014Z,61.50
2018-01-29T08:09:39.804Z,62.20
2018-01-29T08:12:14.386Z,63.10
2018-01-29T08:14:48.988Z,63.10
2018-01-29T08:17:22.606Z,62.60
2018-01-29T08:19:57.232Z,63.90
2018-01-29T08:22:30.981Z,64.60
2018-01-29T08:25:05.587Z,63.50
2018-01-29T08:27:40.106Z,64.10
2018-01-29T08:30:15.593Z,64.70
2018-01-29T08:32:50.092Z,62.20
2018-01-29T08:35:24.333Z,61.40
2018-01-29T08:37:58.281Z,61.90
2018-01-29T08:40:32.083Z,60.90
2018-01-29T08:43:06.714Z,60.70
2018-01-29T08:45:41.115Z,60.90
2018-01-29T08:48:15.721Z,60.90
2018-01-29T08:50:50.177Z,62.70
2018-01-29T08:53:23.855Z,62.30
2018-01-29T08:55:58.513Z,61.50
2018-01-29T08:58:33.282Z,61.50
2018-01-29T09:01:08.617Z,63.20
2018-01-29T09:03:42.380Z,58.80
2018-01-29T09:06:16.172Z,60.30
2018-01-29T09:08:50.621Z,61.10
2018-01-29T09:11:24.482Z,61.10
2018-01-29T09:13:58.776Z,58.80
2018-01-29T09:16:32.693Z,58.10
2018-01-29T09:19:06.304Z,56.60
2018-01-29T09:21:40.164Z,55.60
2018-01-29T09:24:14.578Z,52.50
2018-01-29T09:26:48.372Z,51.60
2018-01-29T09:29:23.210Z,50.40
2018-01-29T09:31:57.087Z,49.40
2018-01-29T09:34:30.781Z,49.10
2018-01-29T09:37:04.534Z,47.80
2018-01-29T09:39:38.281Z,45.00
2018-01-29T09:42:11.935Z,44.40
2018-01-29T09:44:45.791Z,43.60
2018-01-29T09:47:19.483Z,42.00
2018-01-29T09:49:53.160Z,42.00
2018-01-29T09:52:27.366Z,42.10
2018-01-29T09:55:01.165Z,41.60
2018-01-29T09:57:34.790Z,40.50
2018-01-29T10:00:08.737Z,40.40
2018-01-29T10:02:42.460Z,40.60
2018-01-29T10:05:16.195Z,39.20
2018-01-29T10:07:50.022Z,39.20
2018-01-29T10:10:23.775Z,38.90
2018-01-29T10:12:58.375Z,39.30
2018-01-29T10:15:32.277Z,39.20
2018-01-29T10:18:05.934Z,38.40
2018-01-29T10:20:39.836Z,38.00
2018-01-29T10:23:14.286Z,37.70
2018-01-29T10:25:48.129Z,37.60
2018-01-29T10:28:22.152Z,37.80
2018-01-29T10:30:55.936Z,38.40
2018-01-29T10:33:30.862Z,38.80
2018-01-29T10:36:06.796Z,38.60
2018-01-29T10:38:40.681Z,38.20
2018-01-29T10:41:15.690Z,38.80
2018-01-29T10:43:49.772Z,39.30
2018-01-29T10:46:23.460Z,39.10
2018-01-29T10:48:57.274Z,39.40
2018-01-29T10:51:30.970Z,39.60
2018-01-29T10:54:04.634Z,40.20
2018-01-29T10:56:38.577Z,40.50
2018-01-29T10:59:13.596Z,41.40
2018-01-29T11:01:53.972Z,42.10
2018-01-29T11:04:27.727Z,41.80
2018-01-29T11:07:01.453Z,41.60
2018-01-29T11:09:36.012Z,42.10
2018-01-29T11:12:11.257Z,42.10
2018-01-29T11:14:45.086Z,42.10
2018-01-29T11:17:18.796Z,43.00
2018-01-29T11:19:52.423Z,43.00
2018-01-29T11:22:26.220Z,42.80
2018-01-29T11:24:59.845Z,42.80
2018-01-29T11:27:34.316Z,44.30
2018-01-29T11:30:08.896Z,44.60
2018-01-29T11:32:42.652Z,44.50
2018-01-29T11:35:16.401Z,44.20
2018-01-29T11:37:50.996Z,44.60
2018-01-29T11:40:24.756Z,44.60
2018-01-29T11:42:59.381Z,44.90
2018-01-29T11:45:32.935Z,44.80
2018-01-29T11:48:06.687Z,45.40
2018-01-29T11:50:41.205Z,46.50
2018-01-29T11:53:15.072Z,46.40
2018-01-29T11:55:48.833Z,47.50
2018-01-29T11:58:22.629Z,48.50
2018-01-29T12:00:57.232Z,49.00
2018-01-29T12:03:31.791Z,48.70
2018-01-29T12:06:05.581Z,48.70
2018-01-29T12:08:39.388Z,49.10
2018-01-29T12:11:13.832Z,49.60
2018-01-29T12:13:48.339Z,49.80
2018-01-29T12:16:22.054Z,48.30
2018-01-29T12:18:55.861Z,48.90
2018-01-29T12:21:29.712Z,48.10
2018-01-29T12:24:03.459Z,48.10
2018-01-29T12:26:37.428Z,47.20
2018-01-29T12:29:11.909Z,44.20
2018-01-29T12:31:47.315Z,43.40
2018-01-29T12:34:21.846Z,43.40
2018-01-29T12:36:55.668Z,43.20
2018-01-29T12:39:29.475Z,42.50
2018-01-29T12:42:04.128Z,42.50
2018-01-29T12:44:38.723Z,42.50
2018-01-29T12:47:12.452Z,42.50
2018-01-29T12:49:46.284Z,42.50
2018-01-29T12:52:19.994Z,42.60
2018-01-29T12:54:54.570Z,43.50
2018-01-29T12:57:28.307Z,43.60
2018-01-29T13:00:02.859Z,45.20
2018-01-29T13:02:37.414Z,45.40
2018-01-29T13:05:11.160Z,45.40
2018-01-29T13:07:44.908Z,45.10
2018-01-29T13:10:19.421Z,45.20
2018-01-29T13:12:53.376Z,45.10
2018-01-29T13:15:27.145Z,45.10
2018-01-29T13:18:00.976Z,44.60
2018-01-29T13:20:34.831Z,43.90
2018-01-29T13:23:08.520Z,43.60
2018-01-29T13:25:42.349Z,42.70
2018-01-29T13:28:16.051Z,43.60
2018-01-29T13:30:49.882Z,42.70
2018-01-29T13:33:23.466Z,44.00
2018-01-29T13:35:58.024Z,43.80
2018-01-29T13:38:32.540Z,43.90
2018-01-29T13:41:06.375Z,44.60
2018-01-29T13:43:40.065Z,44.10
2018-01-29T13:46:13.895Z,45.30
2018-01-29T13:48:48.475Z,45.70
2018-01-29T13:51:22.302Z,45.70
2018-01-29T13:53:56.047Z,46.00
2018-01-29T13:56:29.943Z,46.00
2018-01-29T13:59:03.840Z,46.70
2018-01-29T14:01:38.338Z,46.60
2018-01-29T14:04:12.769Z,46.90
2018-01-29T14:06:46.529Z,46.50
2018-01-29T14:09:21.975Z,45.90
2018-01-29T14:11:55.776Z,45.90
2018-01-29T14:14:30.428Z,45.70
2018-01-29T14:17:04.255Z,45.60
2018-01-29T14:19:38.768Z,45.60
2018-01-29T14:22:12.496Z,45.60
2018-01-29T14:24:46.344Z,45.60
2018-01-29T14:27:20.899Z,45.20
2018-01-29T14:29:54.727Z,45.20
2018-01-29T14:32:29.186Z,44.10
2018-01-29T14:35:02.914Z,44.00
2018-01-29T14:37:36.560Z,44.00
2018-01-29T14:40:10.350Z,43.90
2018-01-29T14:42:44.026Z,44.10
2018-01-29T14:45:18.602Z,44.30
2018-01-29T14:47:52.440Z,44.30
2018-01-29T14:50:26.188Z,44.10
2018-01-29T14:53:00.698Z,45.20
2018-01-29T14:55:35.677Z,45.80
2018-01-29T14:58:09.304Z,45.70
2018-01-29T15:00:43.078Z,46.50
2018-01-29T15:03:17.554Z,49.10
2018-01-29T15:05:52.230Z,49.10
2018-01-29T15:08:26.734Z,52.10
2018-01-29T15:11:00.437Z,52.10
2018-01-29T15:13:35.057Z,55.30
2018-01-29T15:16:09.650Z,55.30
2018-01-29T15:18:44.154Z,57.20
2018-01-29T15:21:18.027Z,57.20
2018-01-29T15:23:52.474Z,60.00
2018-01-29T15:26:27.129Z,62.20
2018-01-29T15:29:00.859Z,61.30
2018-01-29T15:31:35.321Z,64.20
2018-01-29T15:34:09.093Z,64.20
2018-01-29T15:36:42.913Z,65.30
2018-01-29T15:39:16.669Z,66.00
2018-01-29T15:41:50.485Z,66.40
2018-01-29T15:44:25.006Z,67.90
2018-01-29T15:46:59.906Z,67.90
2018-01-29T15:49:33.499Z,69.10
2018-01-29T15:52:08.155Z,69.60
2018-01-29T15:54:42.003Z,70.50
2018-01-29T15:57:15.831Z,71.90
2018-01-29T15:59:49.450Z,71.00
2018-01-29T16:02:23.121Z,75.00
2018-01-29T16:04:56.850Z,77.70
2018-01-29T16:07:30.664Z,80.80
2018-01-29T16:10:04.372Z,83.90
2018-01-29T16:12:38.051Z,86.20
2018-01-29T16:15:12.449Z,88.70
2018-01-29T16:17:46.121Z,89.80
2018-01-29T16:20:19.828Z,90.30
2018-01-29T16:22:53.441Z,90.80
2018-01-29T16:25:27.160Z,90.90
2018-01-29T16:28:00.836Z,91.30
2018-01-29T16:30:34.544Z,92.40
2018-01-29T16:33:08.261Z,92.60
2018-01-29T16:35:42.585Z,92.40
2018-01-29T16:38:16.228Z,92.90
2018-01-29T16:40:50.041Z,93.00
2018-01-29T16:43:23.898Z,93.10
2018-01-29T16:45:57.516Z,92.90
2018-01-29T16:48:31.292Z,92.80
2018-01-29T16:51:04.943Z,92.00
2018-01-29T16:53:38.560Z,92.00
2018-01-29T16:56:12.370Z,92.20
2018-01-29T16:58:46.164Z,91.90
2018-01-29T17:01:19.837Z,91.90
2018-01-29T17:03:53.756Z,91.80
2018-01-29T17:06:27.624Z,91.90
2018-01-29T17:09:01.311Z,91.60
2018-01-29T17:11:35.243Z,91.20
2018-01-29T17:14:08.948Z,91.50
2018-01-29T17:16:43.015Z,92.00
2018-01-29T17:19:16.967Z,92.00
2018-01-29T17:21:50.648Z,92.10
2018-01-29T17:24:24.271Z,91.70
2018-01-29T17:26:58.002Z,91.80
2018-01-29T17:29:31.790Z,91.90
2018-01-29T17:32:05.504Z,91.80
2018-01-29T17:34:39.155Z,91.70
2018-01-29T17:37:13.656Z,91.10
2018-01-29T17:39:47.312Z,91.10
2018-01-29T17:42:20.999Z,91.10
2018-01-29T17:44:54.673Z,91.60
2018-01-29T17:47:28.479Z,91.80
2018-01-29T17:50:02.353Z,92.10
2018-01-29T17:52:36.143Z,91.80
2018-01-29T17:55:09.928Z,91.10
2018-01-29T17:57:43.574Z,92.00
2018-01-29T18:00:17.673Z,91.90
2018-01-29T18:02:53.178Z,92.00
2018-01-29T18:05:27.442Z,92.30
2018-01-29T18:08:01.500Z,92.90
2018-01-29T18:10:35.365Z,92.80
2018-01-29T18:13:09.052Z,92.80
2018-01-29T18:15:42.826Z,92.60
2018-01-29T18:18:16.492Z,93.10
2018-01-29T18:20:50.275Z,92.30
2018-01-29T18:23:24.047Z,92.20
2018-01-29T18:25:58.540Z,92.20
2018-01-29T18:28:32.306Z,92.20
2018-01-29T18:31:06.908Z,92.80
2018-01-29T18:33:40.601Z,92.80
2018-01-29T18:36:14.322Z,93.30
2018-01-29T18:38:48.124Z,93.50
2018-01-29T18:41:21.704Z,93.40
2018-01-29T18:43:55.822Z,93.30
2018-01-29T18:46:29.697Z,93.30
2018-01-29T18:49:03.466Z,93.70
2018-01-29T18:51:37.285Z,93.70
2018-01-29T18:54:11.936Z,93.70
2018-01-29T18:56:48.341Z,92.60
2018-01-29T18:59:22.059Z,92.60
2018-01-29T19:01:55.732Z,90.80
2018-01-29T19:04:29.410Z,91.10
2018-01-29T19:07:03.934Z,91.80
2018-01-29T19:09:37.675Z,92.40
2018-01-29T19:12:11.325Z,91.70
2018-01-29T19:14:45.922Z,92.80
2018-01-29T19:17:19.546Z,92.70
2018-01-29T19:19:53.156Z,92.50
2018-01-29T19:22:26.980Z,92.70
2018-01-29T19:25:01.524Z,92.40
2018-01-29T19:27:35.116Z,92.40
2018-01-29T19:30:08.770Z,92.20
2018-01-29T19:32:43.534Z,91.60
2018-01-29T19:35:17.362Z,91.40
2018-01-29T19:37:51.102Z,91.00
2018-01-29T19:40:24.881Z,90.90
2018-01-29T19:42:58.647Z,90.40
2018-01-29T19:45:32.374Z,90.40
2018-01-29T19:48:06.863Z,90.10
2018-01-29T19:50:40.635Z,90.10
2018-01-29T19:53:15.188Z,90.40
2018-01-29T19:55:48.796Z,90.30
2018-01-29T19:58:24.680Z,90.40
2018-01-29T20:00:59.152Z,90.30
2018-01-29T20:03:32.716Z,90.50
2018-01-29T20:06:06.557Z,90.20
2018-01-29T20:08:41.146Z,89.70
2018-01-29T20:11:15.596Z,88.70
2018-01-29T20:13:49.377Z,88.70
2018-01-29T20:16:23.148Z,89.40
2018-01-29T20:18:56.978Z,90.20
2018-01-29T20:21:30.769Z,89.20
2018-01-29T20:24:05.306Z,90.00
2018-01-29T20:26:39.108Z,90.00
2018-01-29T20:29:12.919Z,90.00
2018-01-29T20:31:46.676Z,89.80
2018-01-29T20:34:20.532Z,90.30
2018-01-29T20:36:54.155Z,89.30
2018-01-29T20:39:27.976Z,87.80
2018-01-29T20:42:01.795Z,88.40
2018-01-29T20:44:35.623Z,86.60
2018-01-29T20:47:10.984Z,85.40
2018-01-29T20:49:44.780Z,85.30
2018-01-29T20:52:18.591Z,85.90
2018-01-29T20:54:52.521Z,85.10
2018-01-29T20:57:26.301Z,85.70
2018-01-29T21:00:00.037Z,86.60
2018-01-29T21:02:33.772Z,83.90
2018-01-29T21:05:07.522Z,85.80
2018-01-29T21:07:41.348Z,84.80
2018-01-29T21:10:14.947Z,84.60
2018-01-29T21:12:48.691Z,82.30
2018-01-29T21:15:22.331Z,82.40
2018-01-29T21:17:56.821Z,85.30
2018-01-29T21:20:30.601Z,85.00
2018-01-29T21:23:04.293Z,88.70
2018-01-29T21:25:37.998Z,86.70
2018-01-29T21:28:11.724Z,84.10
2018-01-29T21:30:45.414Z,81.30
2018-01-29T21:33:19.118Z,83.20
2018-01-29T21:35:53.599Z,82.30
2018-01-29T21:38:27.295Z,82.30
2018-01-29T21:41:01.631Z,74.80
2018-01-29T21:43:35.291Z,74.80
2018-01-29T21:46:09.082Z,76.50
2018-01-29T21:48:43.738Z,77.70
2018-01-29T21:51:17.465Z,77.60
2018-01-29T21:53:51.136Z,80.30
2018-01-29T21:56:25.704Z,79.40
2018-01-29T21:58:59.374Z,76.40
2018-01-29T22:01:33.169Z,76.00
2018-01-29T22:04:06.876Z,76.90
2018-01-29T22:06:40.720Z,75.60
2018-01-29T22:09:14.526Z,79.10
2018-01-29T22:11:48.571Z,78.80
2018-01-29T22:14:22.979Z,81.20
2018-01-29T22:16:57.365Z,81.10
2018-01-29T22:19:31.159Z,81.10
2018-01-29T22:22:04.994Z,81.70
2018-01-29T22:24:39.514Z,81.50
2018-01-29T22:27:13.183Z,81.50
2018-01-29T22:29:46.945Z,81.10
2018-01-29T22:32:20.688Z,81.10
2018-01-29T22:34:54.420Z,81.00
2018-01-29T22:37:28.189Z,82.30
2018-01-29T22:40:01.974Z,81.10
2018-01-29T22:42:35.613Z,81.90
2018-01-29T22:45:09.281Z,81.70
2018-01-29T22:47:43.083Z,83.90
2018-01-29T22:50:17.605Z,85.30
2018-01-29T22:52:51.347Z,85.40
2018-01-29T22:55:25.215Z,85.60
2018-01-29T22:57:58.963Z,85.70
2018-01-29T23:00:32.781Z,86.60
2018-01-29T23:03:06.662Z,86.70
2018-01-29T23:05:40.376Z,86.80
2018-01-29T23:08:14.938Z,87.00
2018-01-29T23:10:48.599Z,86.90
2018-01-29T23:13:22.463Z,87.20
2018-01-29T23:15:56.283Z,85.70
2018-01-29T23:18:29.944Z,85.50
2018-01-29T23:21:03.774Z,85.00
2018-01-29T23:23:38.349Z,84.40
2018-01-29T23:26:12.065Z,84.50
2018-01-29T23:28:45.996Z,83.30
2018-01-29T23:31:19.633Z,83.30
2018-01-29T23:33:53.486Z,81.90
2018-01-29T23:36:28.112Z,83.00
2018-01-29T23:39:03.489Z,81.40
2018-01-29T23:41:38.123Z,81.60
2018-01-29T23:44:11.704Z,79.70
2018-01-29T23:46:45.443Z,80.30
2018-01-29T23:49:19.884Z,79.20
2018-01-29T23:51:53.487Z,79.30
2018-01-29T23:54:27.364Z,79.70
2018-01-29T23:57:02.140Z,78.40
2018-01-29T23:59:35.848Z,77.60
